Estación de Rauco

Ultimos registro cada 15 minutos 76
Estación Fecha / Hora Temperatura Humedad Lluvia Velocidad Dirección Radiación Presion
76 Rauco 06-05-2026 18:45 12,6 84 0 0 307 0 1020,6
75 Rauco 06-05-2026 18:30 12,8 84 0 0 307 0 1020,5
74 Rauco 06-05-2026 18:15 13,1 84 0 0 175 0 1020,4
73 Rauco 06-05-2026 18:00 13,2 84 0 0 307 0 1020,4
72 Rauco 06-05-2026 17:45 13,3 84 0 0 298 0 1020
71 Rauco 06-05-2026 17:30 13,4 85 0 0 305 5 1019,8
70 Rauco 06-05-2026 17:15 13,6 85 0 0 313 12 1019,7
69 Rauco 06-05-2026 17:00 13,7 85 0 0 315 28 1019,5
68 Rauco 06-05-2026 16:45 13,8 85 0 0 249 33 1019,4
67 Rauco 06-05-2026 16:30 13,9 85 0 0 303 54 1019,1
66 Rauco 06-05-2026 16:15 14 86 0 0 275 104 1019,1
65 Rauco 06-05-2026 16:00 14,1 87 0 0 332 77 1019,1
64 Rauco 06-05-2026 15:45 14,2 88 0 0 263 76 1019,1
63 Rauco 06-05-2026 15:30 14,2 90 0 0 267 144 1018,9
62 Rauco 06-05-2026 15:15 14,1 90 0 0 273 146 1018,8
61 Rauco 06-05-2026 15:00 14,1 91 0 0 218 151 1018,7
60 Rauco 06-05-2026 14:45 14,1 91 0 0,4 261 162 1018,3
59 Rauco 06-05-2026 14:30 14 91 0 0 258 130 1017,9
58 Rauco 06-05-2026 14:15 14 91 0,2 0 273 102 1017,8
57 Rauco 06-05-2026 14:00 14,2 90 0 0 234 123 1017,6
56 Rauco 06-05-2026 13:45 14,6 91 0 1,8 269 76 1017,4
55 Rauco 06-05-2026 13:30 14,7 91 0 0 333 111 1017,2
54 Rauco 06-05-2026 13:15 14,8 94 0 0 329 128 1016,9
53 Rauco 06-05-2026 13:00 14,6 93 0,6 0 175 69 1016,6
52 Rauco 06-05-2026 12:45 14,4 93 2 0 175 104 1016,5
51 Rauco 06-05-2026 12:30 14,3 93 0,8 0 175 84 1016,2
50 Rauco 06-05-2026 12:15 14,2 92 0,2 0 330 65 1015,9
49 Rauco 06-05-2026 12:00 14,1 93 0,2 0,9 321 25 1015,8
48 Rauco 06-05-2026 11:45 13,9 92 0,2 0 326 44 1015,8
47 Rauco 06-05-2026 11:30 13,9 91 0 0,9 175 16 1015,9
46 Rauco 06-05-2026 11:15 13,9 92 0 1,8 325 125 1015,5
45 Rauco 06-05-2026 11:00 13,6 92 0,2 0 321 37 1015,6
44 Rauco 06-05-2026 10:45 13,7 92 0 0 319 49 1015,3
43 Rauco 06-05-2026 10:30 13,6 93 0,4 0 323 88 1015,1
42 Rauco 06-05-2026 10:15 13,3 92 1,4 0,9 323 60 1015
41 Rauco 06-05-2026 10:00 13,2 92 2,4 0 336 63 1015
40 Rauco 06-05-2026 09:45 13,1 92 2,2 0,9 317 25 1014,9
39 Rauco 06-05-2026 09:30 13,1 92 0,6 1,8 334 25 1014,6
38 Rauco 06-05-2026 09:15 13 92 2,2 0 315 32 1014,6
37 Rauco 06-05-2026 09:00 12,8 92 0,2 0 71 5 1014,8
36 Rauco 06-05-2026 08:45 12,8 92 0 0,9 325 65 1014,2
35 Rauco 06-05-2026 08:30 12,6 92 0 0 359 60 1013,8
34 Rauco 06-05-2026 08:15 12,3 92 0 0 47 53 1013,9
33 Rauco 06-05-2026 08:00 12,2 91 0 0 340 40 1013,7
32 Rauco 06-05-2026 07:45 12,1 91 0,4 0 51 5 1014
31 Rauco 06-05-2026 07:30 12,1 90 0,4 0 7 0 1014,2
30 Rauco 06-05-2026 07:15 12,1 89 0,6 0 47 0 1014,1
29 Rauco 06-05-2026 07:00 12,1 88 0,6 0 74 0 1013,6
28 Rauco 06-05-2026 06:45 11,9 88 0 0,4 74 0 1013,7
27 Rauco 06-05-2026 06:30 11,7 88 0 0 175 0 1013,3
26 Rauco 06-05-2026 06:15 11,5 88 0 0 175 0 1013,2
25 Rauco 06-05-2026 06:00 11 90 0 1,3 175 0 1013,1
24 Rauco 06-05-2026 05:45 10,7 90 0 1,3 175 0 1012,9
23 Rauco 06-05-2026 05:30 10,6 91 0 0 175 0 1013,1
22 Rauco 06-05-2026 05:15 10,3 91 0 0,4 175 0 1013
21 Rauco 06-05-2026 05:00 10,3 91 0 0 175 0 1013,2
20 Rauco 06-05-2026 04:45 9,9 91 0 0 175 0 1013,3
19 Rauco 06-05-2026 04:30 10,1 90 0 0 175 0 1013
18 Rauco 06-05-2026 04:15 10,4 91 0 0,4 175 0 1013,1
17 Rauco 06-05-2026 04:00 10,4 91 0 0 175 0 1013,2
16 Rauco 06-05-2026 03:45 10,4 90 0 0 175 0 1013,5
15 Rauco 06-05-2026 03:30 10,6 90 0 0,9 84 0 1013,7
14 Rauco 06-05-2026 03:15 10,7 90 0 1,8 116 0 1013,7
13 Rauco 06-05-2026 03:00 11,1 89 0 1,8 175 0 1013,7
12 Rauco 06-05-2026 02:45 11,4 88 0 0,9 175 0 1013,6
11 Rauco 06-05-2026 02:30 11,8 86 0 0,4 175 0 1014,1
10 Rauco 06-05-2026 02:15 12,7 83 0 1,3 112 0 1014
9 Rauco 06-05-2026 02:00 13 83 0 0 56 0 1014,1
8 Rauco 06-05-2026 01:45 12,8 84 0 0,4 69 0 1014
7 Rauco 06-05-2026 01:30 12,8 84 0 0,4 69 0 1014,2
6 Rauco 06-05-2026 01:15 12,9 84 0 0,4 69 0 1014,1
5 Rauco 06-05-2026 01:00 13 84 0 0,9 64 0 1013,9
4 Rauco 06-05-2026 00:45 13,2 84 0 1,8 51 0 1013,9
3 Rauco 06-05-2026 00:30 13,4 84 0 0,9 75 0 1014,1
2 Rauco 06-05-2026 00:15 13,5 83 0 0,9 64 0 1014,3
1 Rauco 06-05-2026 00:00 13,5 83 0 0,9 62 0 1014,4